createdAt,value
2023-03-03T00:01:42.466Z,-0.54
2023-03-03T00:04:09.539Z,-0.55
2023-03-03T00:06:36.360Z,-0.49
2023-03-03T00:09:03.198Z,-0.59
2023-03-03T00:11:29.961Z,-0.60
2023-03-03T00:13:57.395Z,-0.61
2023-03-03T00:16:37.740Z,-0.56
2023-03-03T00:19:14.066Z,-0.57
2023-03-03T00:21:42.612Z,-0.57
2023-03-03T00:24:24.304Z,-0.68
2023-03-03T00:26:56.130Z,-0.80
2023-03-03T00:29:31.017Z,-0.70
2023-03-03T00:32:22.289Z,-0.61
2023-03-03T00:34:50.256Z,-0.59
2023-03-03T00:37:29.235Z,-0.71
2023-03-03T00:40:03.887Z,-0.64
2023-03-03T00:42:33.838Z,-0.68
2023-03-03T00:45:03.985Z,-0.56
2023-03-03T00:47:41.330Z,-0.68
2023-03-03T00:50:08.137Z,-0.72
2023-03-03T00:52:40.517Z,-0.88
2023-03-03T00:55:08.622Z,-0.80
2023-03-03T00:57:35.446Z,-0.85
2023-03-03T01:00:04.726Z,-0.87
2023-03-03T01:02:32.407Z,-0.76
2023-03-03T01:05:00.092Z,-0.88
2023-03-03T01:07:27.310Z,-0.93
2023-03-03T01:09:55.132Z,-0.87
2023-03-03T01:12:21.961Z,-0.79
2023-03-03T01:14:49.464Z,-0.86
2023-03-03T01:17:16.335Z,-0.86
2023-03-03T01:19:43.194Z,-0.83
2023-03-03T01:22:10.024Z,-0.88
2023-03-03T01:24:36.833Z,-0.85
2023-03-03T01:27:04.591Z,-0.80
2023-03-03T01:29:31.349Z,-0.87
2023-03-03T01:31:58.221Z,-0.78
2023-03-03T01:34:25.547Z,-0.76
2023-03-03T01:36:52.326Z,-0.83
2023-03-03T01:39:19.237Z,-0.88
2023-03-03T01:41:46.074Z,-0.87
2023-03-03T01:44:15.642Z,-0.88
2023-03-03T01:46:52.779Z,-0.90
2023-03-03T01:49:27.404Z,-0.96
2023-03-03T01:51:56.644Z,-1.03
2023-03-03T01:54:29.949Z,-1.08
2023-03-03T01:57:00.616Z,-0.97
2023-03-03T01:59:28.816Z,-1.03
2023-03-03T02:01:55.643Z,-0.91
2023-03-03T02:04:22.695Z,-0.87
2023-03-03T02:06:55.169Z,-0.88
2023-03-03T02:09:40.050Z,-0.70
2023-03-03T02:12:08.674Z,-0.78
2023-03-03T02:14:35.464Z,-0.81
2023-03-03T02:17:02.312Z,-0.84
2023-03-03T02:19:52.172Z,-0.89
2023-03-03T02:22:23.998Z,-0.82
2023-03-03T02:24:59.223Z,-0.97
2023-03-03T02:27:27.365Z,-1.11
2023-03-03T02:29:54.445Z,-1.21
2023-03-03T02:32:21.308Z,-1.02
2023-03-03T02:34:50.584Z,-1.02
2023-03-03T02:37:18.332Z,-1.14
2023-03-03T02:39:45.533Z,-0.99
2023-03-03T02:42:24.513Z,-1.07
2023-03-03T02:44:54.624Z,-1.23
2023-03-03T02:47:21.419Z,-1.45
2023-03-03T02:49:48.374Z,-1.45
2023-03-03T02:52:18.197Z,-1.55
2023-03-03T02:54:46.882Z,-1.54
2023-03-03T02:57:13.837Z,-1.53
2023-03-03T02:59:40.590Z,-1.37
2023-03-03T03:02:13.360Z,-1.39
2023-03-03T03:04:40.962Z,-1.26
2023-03-03T03:07:09.640Z,-1.30
2023-03-03T03:09:37.847Z,-1.41
2023-03-03T03:12:05.462Z,-1.51
2023-03-03T03:14:34.506Z,-1.38
2023-03-03T03:17:01.696Z,-1.49
2023-03-03T03:19:29.444Z,-1.40
2023-03-03T03:21:59.364Z,-1.56
2023-03-03T03:24:26.576Z,-1.48
2023-03-03T03:26:58.031Z,-1.35
2023-03-03T03:29:26.755Z,-1.45
2023-03-03T03:31:54.070Z,-1.48
2023-03-03T03:34:21.198Z,-1.42
2023-03-03T03:36:49.535Z,-1.47
2023-03-03T03:39:17.719Z,-1.47
2023-03-03T03:41:47.214Z,-1.36
2023-03-03T03:44:14.051Z,-1.40
2023-03-03T03:46:40.944Z,-1.54
2023-03-03T03:49:07.992Z,-1.58
2023-03-03T03:51:35.763Z,-1.61
2023-03-03T03:54:03.492Z,-1.61
2023-03-03T03:56:31.358Z,-1.73
2023-03-03T03:59:01.134Z,-1.73
2023-03-03T04:01:28.398Z,-1.75
2023-03-03T04:03:56.649Z,-1.70
2023-03-03T04:06:25.064Z,-1.67
2023-03-03T04:08:52.701Z,-1.53
2023-03-03T04:11:22.064Z,-1.52
2023-03-03T04:13:49.409Z,-1.65
2023-03-03T04:16:16.638Z,-1.71
2023-03-03T04:18:46.208Z,-1.73
2023-03-03T04:21:15.312Z,-1.84
2023-03-03T04:23:43.746Z,-1.70
2023-03-03T04:26:10.833Z,-1.70
2023-03-03T04:28:38.448Z,-1.78
2023-03-03T04:31:05.615Z,-2.02
2023-03-03T04:33:33.357Z,-2.10
2023-03-03T04:36:01.378Z,-2.03
2023-03-03T04:38:28.252Z,-1.93
2023-03-03T04:40:57.190Z,-1.91
2023-03-03T04:43:26.157Z,-1.83
2023-03-03T04:45:54.543Z,-1.80
2023-03-03T04:48:22.812Z,-1.70
2023-03-03T04:50:49.592Z,-1.94
2023-03-03T04:53:16.401Z,-2.08
2023-03-03T04:55:43.587Z,-2.15
2023-03-03T04:58:13.582Z,-2.29
2023-03-03T05:00:40.469Z,-2.21
2023-03-03T05:03:10.773Z,-2.14
2023-03-03T05:05:39.275Z,-2.16
2023-03-03T05:08:06.523Z,-2.32
2023-03-03T05:10:35.114Z,-2.20
2023-03-03T05:13:02.224Z,-2.28
2023-03-03T05:15:28.980Z,-2.28
2023-03-03T05:17:56.591Z,-2.16
2023-03-03T05:20:24.133Z,-2.31
2023-03-03T05:22:53.836Z,-2.22
2023-03-03T05:25:21.739Z,-2.14
2023-03-03T05:27:48.661Z,-2.39
2023-03-03T05:30:15.387Z,-2.33
2023-03-03T05:32:42.077Z,-2.31
2023-03-03T05:35:09.354Z,-2.44
2023-03-03T05:37:36.137Z,-2.19
2023-03-03T05:40:03.042Z,-2.21
2023-03-03T05:42:30.477Z,-2.26
2023-03-03T05:44:57.331Z,-2.41
2023-03-03T05:47:24.147Z,-2.39
2023-03-03T05:49:50.889Z,-2.38
2023-03-03T05:52:17.762Z,-2.40
2023-03-03T05:54:44.617Z,-2.36
2023-03-03T05:57:11.989Z,-2.33
2023-03-03T05:59:39.114Z,-2.23
2023-03-03T06:02:06.093Z,-2.37
2023-03-03T06:04:33.780Z,-2.34
2023-03-03T06:07:00.600Z,-2.19
2023-03-03T06:09:27.537Z,-2.08
2023-03-03T06:11:54.469Z,-2.10
2023-03-03T06:14:21.446Z,-2.12
2023-03-03T06:16:48.498Z,-2.34
2023-03-03T06:19:31.148Z,-2.28
2023-03-03T06:22:00.599Z,-2.33
2023-03-03T06:24:30.484Z,-2.32
2023-03-03T06:26:59.456Z,-2.34
2023-03-03T06:29:27.563Z,-2.24
2023-03-03T06:31:54.617Z,-2.23
2023-03-03T06:34:21.763Z,-2.22
2023-03-03T06:36:48.986Z,-2.32
2023-03-03T06:39:15.911Z,-2.36
2023-03-03T06:41:42.809Z,-2.39
2023-03-03T06:44:09.645Z,-2.28
2023-03-03T06:46:36.487Z,-2.46
2023-03-03T06:49:03.515Z,-2.47
2023-03-03T06:51:35.205Z,-2.46
2023-03-03T06:54:07.407Z,-2.45
2023-03-03T06:56:36.651Z,-2.46
2023-03-03T06:59:10.977Z,-2.40
2023-03-03T07:01:38.334Z,-2.47
2023-03-03T07:04:14.260Z,-2.38
2023-03-03T07:06:41.168Z,-2.39
2023-03-03T07:09:27.803Z,-2.31
2023-03-03T07:12:01.432Z,-2.48
2023-03-03T07:14:29.447Z,-2.46
2023-03-03T07:17:05.353Z,-2.42
2023-03-03T07:19:36.210Z,-2.50
2023-03-03T07:22:14.942Z,-2.52
2023-03-03T07:24:43.244Z,-2.49
2023-03-03T07:27:19.318Z,-2.49
2023-03-03T07:29:49.781Z,-2.38
2023-03-03T07:32:26.153Z,-2.42
2023-03-03T07:34:55.109Z,-2.43
2023-03-03T07:37:39.488Z,-2.24
2023-03-03T07:40:29.685Z,-2.21
2023-03-03T07:42:56.581Z,-2.20
2023-03-03T07:45:36.995Z,-1.98
2023-03-03T07:48:24.987Z,-1.96
2023-03-03T07:50:52.764Z,-2.01
2023-03-03T07:53:26.113Z,-2.02
2023-03-03T07:55:53.182Z,-2.13
2023-03-03T07:58:30.900Z,-2.06
2023-03-03T08:01:36.376Z,-1.93
2023-03-03T08:04:50.080Z,-1.88
2023-03-03T08:07:22.114Z,-1.78
2023-03-03T08:09:51.270Z,-1.78
2023-03-03T08:12:42.921Z,-1.65
2023-03-03T08:15:26.381Z,-1.63
2023-03-03T08:17:55.033Z,-1.59
2023-03-03T08:20:47.097Z,-1.51
2023-03-03T08:23:15.315Z,-1.60
2023-03-03T08:25:43.136Z,-1.67
2023-03-03T08:28:11.112Z,-1.72
2023-03-03T08:30:39.912Z,-1.78
2023-03-03T08:33:15.864Z,-1.88
2023-03-03T08:35:45.581Z,-1.77
2023-03-03T08:46:04.577Z,-1.47
2023-03-03T09:01:41.624Z,-1.57
2023-03-03T09:04:53.135Z,-1.50
2023-03-03T09:08:03.762Z,-1.62
2023-03-03T09:23:06.574Z,-1.38
2023-03-03T09:32:44.511Z,-1.10
2023-03-03T09:35:43.301Z,-1.14
2023-03-03T09:38:24.045Z,-1.16
2023-03-03T09:40:53.944Z,-1.16
2023-03-03T09:44:00.079Z,-1.11
2023-03-03T09:46:55.383Z,-1.07
2023-03-03T09:49:30.980Z,-1.09
2023-03-03T09:52:06.671Z,-1.03
2023-03-03T09:55:11.681Z,-1.04
2023-03-03T09:58:09.957Z,-1.01
2023-03-03T10:01:00.193Z,-1.02
2023-03-03T10:03:40.698Z,-0.94
2023-03-03T10:06:33.121Z,-0.98
2023-03-03T10:09:14.917Z,-0.89
2023-03-03T10:11:57.933Z,-0.86
2023-03-03T10:14:35.484Z,-0.85
2023-03-03T10:17:44.996Z,-0.91
2023-03-03T10:20:34.796Z,-0.87
2023-03-03T10:23:21.255Z,-0.91
2023-03-03T10:25:57.437Z,-0.91
2023-03-03T10:28:43.045Z,-0.86
2023-03-03T10:31:29.171Z,-0.80
2023-03-03T10:34:17.580Z,-0.64
2023-03-03T10:37:01.762Z,-0.55
2023-03-03T10:39:37.516Z,-0.45
2023-03-03T10:42:33.633Z,-0.62
2023-03-03T10:45:15.569Z,-0.64
2023-03-03T10:48:15.053Z,-0.60
2023-03-03T10:50:51.113Z,-0.60
2023-03-03T10:53:32.134Z,-0.52
2023-03-03T10:56:22.486Z,-0.30
2023-03-03T10:59:14.612Z,-0.33
2023-03-03T11:01:51.920Z,-0.38
2023-03-03T11:04:27.912Z,-0.38
2023-03-03T11:07:04.408Z,-0.36
2023-03-03T11:09:53.310Z,-0.25
2023-03-03T11:12:29.266Z,-0.39
2023-03-03T11:15:05.130Z,-0.39
2023-03-03T11:17:42.479Z,-0.42
2023-03-03T11:20:50.586Z,-0.28
2023-03-03T11:23:46.245Z,-0.22
2023-03-03T11:26:39.286Z,-0.12
2023-03-03T11:29:27.173Z,-0.03
2023-03-03T11:31:57.800Z,0.04
2023-03-03T11:34:36.922Z,-0.08
2023-03-03T11:37:09.968Z,-0.09
2023-03-03T11:39:37.155Z,-0.07
2023-03-03T11:42:27.094Z,0.08
2023-03-03T11:45:15.597Z,0.12
2023-03-03T11:47:48.929Z,0.04
2023-03-03T11:50:23.507Z,0.07
2023-03-03T11:53:08.321Z,0.13
2023-03-03T11:55:42.457Z,0.20
2023-03-03T11:58:31.035Z,0.10
2023-03-03T12:01:21.137Z,0.03
2023-03-03T12:03:58.875Z,-0.01
2023-03-03T12:07:18.431Z,-0.05
2023-03-03T12:10:11.796Z,0.06
2023-03-03T12:12:44.635Z,0.26
2023-03-03T12:15:37.956Z,0.29
2023-03-03T12:18:25.691Z,0.22
2023-03-03T12:21:00.133Z,0.06
2023-03-03T12:23:37.507Z,0.05
2023-03-03T12:26:16.600Z,0.11
2023-03-03T12:28:54.139Z,0.08
2023-03-03T12:31:41.311Z,0.09
2023-03-03T12:34:14.401Z,0.25
2023-03-03T12:37:05.407Z,0.27
2023-03-03T12:39:54.178Z,0.32
2023-03-03T12:42:48.509Z,0.39
2023-03-03T12:45:53.653Z,0.24
2023-03-03T12:48:25.671Z,0.33
2023-03-03T12:51:26.639Z,0.29
2023-03-03T12:54:12.352Z,0.19
2023-03-03T12:56:44.207Z,0.29
2023-03-03T12:59:20.037Z,0.29
2023-03-03T13:02:16.242Z,0.36
2023-03-03T13:04:53.174Z,0.45
2023-03-03T13:07:27.349Z,0.49
2023-03-03T13:10:28.484Z,0.50
2023-03-03T13:12:55.197Z,0.46
2023-03-03T13:15:32.238Z,0.48
2023-03-03T13:18:07.721Z,0.52
2023-03-03T13:20:54.432Z,0.39
2023-03-03T13:23:32.304Z,0.44
2023-03-03T13:26:14.761Z,0.56
2023-03-03T13:28:54.598Z,0.59
2023-03-03T13:31:23.697Z,0.49
2023-03-03T13:33:58.817Z,0.48
2023-03-03T13:36:31.695Z,0.50
2023-03-03T13:39:05.936Z,0.53
2023-03-03T13:41:44.896Z,0.56
2023-03-03T13:44:17.331Z,0.67
2023-03-03T13:46:55.922Z,0.66
2023-03-03T13:49:41.836Z,0.68
2023-03-03T13:52:15.748Z,0.70
2023-03-03T13:54:45.540Z,0.70
2023-03-03T13:57:21.705Z,0.72
2023-03-03T14:00:09.926Z,0.73
2023-03-03T14:03:09.736Z,0.77
2023-03-03T14:05:48.854Z,0.73
2023-03-03T14:08:24.850Z,0.76
2023-03-03T14:11:03.928Z,0.76
2023-03-03T14:13:40.178Z,0.73
2023-03-03T14:16:28.956Z,0.79
2023-03-03T14:19:21.208Z,0.88
2023-03-03T14:21:50.001Z,0.94
2023-03-03T14:24:21.928Z,0.95
2023-03-03T14:26:52.872Z,0.96
2023-03-03T14:29:28.641Z,0.97
2023-03-03T14:32:03.426Z,1.02
2023-03-03T14:34:35.569Z,1.08
2023-03-03T14:37:23.171Z,1.07
2023-03-03T14:40:14.912Z,1.08
2023-03-03T14:42:54.895Z,1.13
2023-03-03T14:45:33.103Z,1.12
2023-03-03T14:48:10.484Z,1.21
2023-03-03T14:50:39.935Z,1.29
2023-03-03T14:53:18.280Z,1.29
2023-03-03T14:55:50.889Z,1.35
2023-03-03T14:58:40.848Z,1.33
2023-03-03T15:01:22.917Z,1.30
2023-03-03T15:04:16.089Z,1.31
2023-03-03T15:06:48.768Z,1.36
2023-03-03T15:09:40.342Z,1.38
2023-03-03T15:12:25.542Z,1.40
2023-03-03T15:15:11.275Z,1.42
2023-03-03T15:17:39.675Z,1.46
2023-03-03T15:20:32.567Z,1.49
2023-03-03T15:23:12.389Z,1.42
2023-03-03T15:25:53.962Z,1.83
2023-03-03T15:28:47.358Z,1.99
2023-03-03T15:31:55.823Z,1.72
2023-03-03T15:34:31.734Z,1.55
2023-03-03T15:37:28.311Z,1.59
2023-03-03T15:40:19.759Z,1.53
2023-03-03T15:42:49.495Z,1.53
2023-03-03T15:45:16.241Z,1.57
2023-03-03T15:48:09.367Z,1.50
2023-03-03T15:50:54.963Z,1.55
2023-03-03T15:53:59.294Z,1.52
2023-03-03T15:56:33.308Z,1.55
2023-03-03T15:59:03.114Z,1.55
2023-03-03T16:01:33.516Z,1.56
2023-03-03T16:04:15.652Z,1.61
2023-03-03T16:07:04.192Z,1.61
2023-03-03T16:09:56.543Z,1.63
2023-03-03T16:12:40.259Z,1.63
2023-03-03T16:15:25.731Z,1.78
2023-03-03T16:18:22.126Z,1.70
2023-03-03T16:21:17.904Z,1.66
2023-03-03T16:23:52.534Z,1.71
2023-03-03T16:26:41.079Z,1.74
2023-03-03T16:29:13.342Z,1.65
2023-03-03T16:31:49.060Z,1.60
2023-03-03T16:34:36.681Z,1.59
2023-03-03T16:37:18.810Z,1.58
2023-03-03T16:39:56.630Z,1.58
2023-03-03T16:42:31.377Z,1.55
2023-03-03T16:45:09.631Z,1.51
2023-03-03T16:47:39.332Z,1.42
2023-03-03T16:50:36.546Z,1.43
2023-03-03T16:53:24.530Z,1.32
2023-03-03T16:56:07.230Z,1.35
2023-03-03T16:59:02.211Z,1.29
2023-03-03T17:01:50.842Z,1.22
2023-03-03T17:04:33.354Z,1.23
2023-03-03T17:07:12.879Z,1.21
2023-03-03T17:10:05.917Z,1.19
2023-03-03T17:13:01.492Z,1.20
2023-03-03T17:15:34.671Z,1.13
2023-03-03T17:18:15.027Z,1.11
2023-03-03T17:20:52.262Z,1.12
2023-03-03T17:23:47.697Z,1.15
2023-03-03T17:27:09.028Z,1.11
2023-03-03T17:30:06.269Z,1.08
2023-03-03T17:32:42.022Z,1.15
2023-03-03T17:35:20.588Z,1.16
2023-03-03T17:37:57.796Z,1.16
2023-03-03T17:40:33.925Z,1.20
2023-03-03T17:43:07.347Z,1.24
2023-03-03T17:45:40.796Z,1.29
2023-03-03T17:48:19.587Z,1.33
2023-03-03T17:51:07.902Z,1.41
2023-03-03T17:53:47.918Z,1.33
2023-03-03T17:56:40.331Z,1.35
2023-03-03T17:59:25.455Z,1.36
2023-03-03T18:02:09.636Z,1.32
2023-03-03T18:04:55.144Z,1.35
2023-03-03T18:07:33.435Z,1.32
2023-03-03T18:18:16.171Z,1.35
2023-03-03T18:26:12.101Z,1.22
2023-03-03T18:28:23.928Z,1.32
2023-03-03T18:33:02.421Z,1.37
2023-03-03T18:35:46.053Z,1.38
2023-03-03T18:38:15.629Z,1.39
2023-03-03T18:40:54.695Z,1.39
2023-03-03T18:43:40.240Z,1.43
2023-03-03T18:46:32.588Z,1.42
2023-03-03T18:49:04.813Z,1.41
2023-03-03T18:51:34.736Z,1.45
2023-03-03T18:54:07.048Z,1.46
2023-03-03T18:56:47.153Z,1.42
2023-03-03T18:59:36.656Z,1.45
2023-03-03T19:02:12.649Z,1.45
2023-03-03T19:04:43.011Z,1.45
2023-03-03T19:07:15.666Z,1.47
2023-03-03T19:10:14.521Z,1.47
2023-03-03T19:12:59.336Z,1.49
2023-03-03T19:54:03.002Z,1.77
2023-03-03T19:58:25.978Z,1.77
2023-03-03T20:14:04.433Z,1.80
2023-03-03T20:17:14.459Z,1.73
2023-03-03T20:36:10.506Z,1.78
2023-03-03T20:47:40.580Z,1.78
2023-03-03T20:51:35.823Z,1.83
2023-03-03T21:04:03.216Z,1.77
2023-03-03T21:12:43.044Z,1.80
2023-03-03T21:19:04.159Z,1.82
2023-03-03T21:26:37.911Z,1.83
2023-03-03T21:30:30.631Z,1.82
2023-03-03T21:33:13.135Z,1.80
2023-03-03T21:36:51.923Z,1.86
2023-03-03T21:40:37.029Z,1.85
2023-03-03T21:44:14.704Z,1.85
2023-03-03T21:47:05.550Z,1.86
2023-03-03T21:53:50.800Z,1.81
2023-03-03T21:59:43.191Z,1.75
2023-03-03T22:02:55.451Z,1.76
2023-03-03T22:05:22.463Z,1.75
2023-03-03T22:07:49.565Z,1.77
2023-03-03T22:10:38.714Z,1.77
2023-03-03T22:13:05.528Z,1.81
2023-03-03T22:16:03.042Z,1.77
2023-03-03T22:18:54.557Z,1.73
2023-03-03T22:21:25.607Z,1.76
2023-03-03T22:23:52.488Z,1.75
2023-03-03T22:26:24.827Z,1.70
2023-03-03T22:29:16.600Z,1.70
2023-03-03T22:32:42.654Z,1.72
2023-03-03T22:35:19.059Z,1.65
2023-03-03T22:37:46.057Z,1.60
2023-03-03T22:40:21.412Z,1.64
2023-03-03T22:42:54.763Z,1.62
2023-03-03T22:45:24.822Z,1.57
2023-03-03T22:47:51.839Z,1.54
2023-03-03T22:50:19.570Z,1.58
2023-03-03T22:52:46.377Z,1.56
2023-03-03T22:55:13.596Z,1.53
2023-03-03T22:57:41.952Z,1.42
2023-03-03T23:00:13.338Z,1.38
2023-03-03T23:02:40.929Z,1.35
2023-03-03T23:05:35.609Z,1.32
2023-03-03T23:08:12.363Z,1.23
2023-03-03T23:10:53.801Z,1.20
2023-03-03T23:14:32.918Z,1.20
2023-03-03T23:17:54.653Z,1.12
2023-03-03T23:20:52.996Z,1.06
2023-03-03T23:34:35.396Z,0.95
2023-03-03T23:42:12.468Z,0.89
2023-03-03T23:45:21.170Z,0.97
2023-03-03T23:48:08.168Z,0.92
2023-03-03T23:50:43.482Z,0.89
2023-03-03T23:53:29.260Z,0.85
